Aviation Digital Data Service (ADDS)

Output produced by METARs form (1421 UTC 07 December 2016)
found at http://www.aviationweather.gov/adds/metars/
 
KFIG 071354Z AUTO 23007KT 10SM SCT018 OVC032 02/M01 A3001 RMK AO2 SLP174 T00171006
KFIG 071254Z AUTO 25008KT 10SM FEW034 01/M01 A2997 RMK AO2 SLP163 T00111006
KFIG 071215Z AUTO 24006KT 10SM OVC030 02/00 A2996 RMK AO2 T00220000
KFIG 071154Z AUTO 25007KT 10SM FEW022 OVC028 02/00 A2997 RMK AO2 SLP160 60003 70047 T00220000 10028 20011 53031
KFIG 071054Z AUTO 29012G22KT 10SM SCT013 BKN020 OVC026 03/01 A2993 RMK AO2 RAE00 SLP148 P0000 T00280011
KFIG 071011Z AUTO 25006KT 10SM BKN015 OVC021 03/02 A2990 RMK AO2 RAE00 P0000 T00280022
KFIG 070954Z AUTO 24004KT 4SM -RA BR OVC011 02/02 A2989 RMK AO2 RAB12E31B40UPB13E14B31E33 SLP136 P0000 T00220022
KFIG 070938Z AUTO 22003KT 4SM BR OVC011 02/02 A2989 RMK AO2 RAB12E31UPB13E14B31E33 P0000 T00170017
KFIG 070929Z AUTO 00000KT 2SM -RA BR BKN009 OVC013 02/02 A2988 RMK AO2 RAB12UPB13E14 P0000 T00170017
KFIG 070921Z AUTO 23003KT 3/4SM -RA BR BKN006 OVC015 02/02 A2988 RMK AO2 RAB12UPB13E14 P0000 T00170017
KFIG 070854Z AUTO 00000KT 3/4SM BR VV004 02/02 A2987 RMK AO2 SLP128 60003 T00170017 53018
KFIG 070827Z AUTO 00000KT 2 1/2SM BR OVC003 02/02 A2986 RMK AO2 T00170017
KFIG 070754Z AUTO 00000KT 1SM BR OVC003 01/01 A2985 RMK AO2 RAE00 SLP121 P0000 T00110011
KFIG 070740Z AUTO 00000KT 3/4SM BR OVC004 01/01 A2985 RMK AO2 RAE00 P0000 T00110011
KFIG 070726Z AUTO 36003KT 3/4SM BR OVC005 01/01 A2984 RMK AO2 RAE00 P0000 T00110011
KFIG 070718Z AUTO 00000KT 1SM BR OVC005 01/01 A2984 RMK AO2 RAE00 P0000 T00110011
KFIG 070654Z AUTO 36004KT 3/4SM -RA BR VV006 01/01 A2983 RMK AO2 SLP115 P0003 T00110011
KFIG 070554Z AUTO 00000KT 3/4SM -RA BR VV007 01/01 A2982 RMK AO2 SLP110 P0001 60008 T00110011 10017 20006 53005
KFIG 070520Z AUTO 05004KT 1/2SM -RA FG VV007 01/01 A2981 RMK AO2 P0001 T00110011
KFIG 070504Z AUTO 06003KT 1 1/4SM -RA BR OVC007 01/01 A2981 RMK AO2 P0001 T00110011
KFIG 070454Z AUTO 06004KT 3/4SM -RA BR OVC008 01/01 A2981 RMK AO2 RAB0355 SLP105 P0001 T00110011 400221050
KFIG 070421Z AUTO 03003KT 3/4SM -RA BR OVC009 01/01 A2980 RMK AO2 RAB0355 P0000 T00110011
KFIG 070407Z AUTO 00000KT 2SM -RA BR BKN008 OVC012 01/01 A2981 RMK AO2 RAB0355 P0000 T00110011
KFIG 070405Z AUTO 00000KT 1 1/2SM -RA BR OVC010 01/01 A2981 RMK AO2 RAB0355 P0000 T00110011
KFIG 070354Z AUTO 00000KT 3/4SM BR BKN008 OVC012 01/01 A2980 RMK AO2 RAB20E50 SLP106 P0001 T00110011
KFIG 070340Z AUTO 01003KT 3/4SM -RA BR BKN008 OVC012 01/01 A2981 RMK AO2 RAB20 P0000 T00110011
KFIG 070330Z AUTO 01003KT 1 1/4SM -RA BR OVC008 01/01 A2980 RMK AO2 RAB20 P0000 T00110011
KFIG 070320Z AUTO 36003KT 2SM -RA BR OVC010 01/01 A2980 RMK AO2 RAB20 P0000 T00110011
KFIG 070309Z AUTO 34003KT 1/2SM FG VV010 01/01 A2980 RMK AO2 T00110011
KFIG 070254Z AUTO 35003KT 1/4SM FG OVC010 01/01 A2980 RMK AO2 RAE17B36E48 SLP106 P0000 60005 T00060006 50000
KFIG 070242Z AUTO 02003KT 1/2SM -RA FG OVC010 01/01 A2980 RMK AO2 RAE17B36 P0000 T00060006
KFIG 070233Z AUTO 00000KT 1 1/2SM BR OVC010 01/01 A2980 RMK AO2 RAE17 CIG 007V013 P0000 T00110011
KFIG 070154Z AUTO 00000KT 3SM -RA BR BKN010 OVC014 01/01 A2980 RMK AO2 SLP108 P0004 T00110011
KFIG 070149Z AUTO 00000KT 3SM -RA BR OVC012 01/01 A2981 RMK AO2 P0004
KFIG 070132Z AUTO 00000KT 2 1/2SM -RA BR OVC010 01/01 A2981 RMK AO2 P0003 T00110011
KFIG 070125Z AUTO 00000KT 3SM -RA BR OVC009 01/01 A2981 RMK AO2 P0002 T00110011
KFIG 070054Z AUTO 00000KT 3SM -RA BR OVC010 01/01 A2980 RMK AO2 RAE09B33 CIG 007V012 SLP105 P0001 T00110011
KFIG 062354Z AUTO 09005KT 10SM -RA OVC013 01/01 A2980 RMK AO2 SLP106 P0001 60034 T00110006 10011 20006 58001
KFIG 062346Z AUTO 09003KT 10SM -RA OVC014 01/01 A2980 RMK AO2 P0001 T00110006
KFIG 062254Z AUTO 10003KT 7SM -RA OVC015 01/01 A2983 RMK AO2 SLP116 P0007 T00110006
KFIG 062234Z AUTO 00000KT 7SM RA OVC015 01/01 A2983 RMK AO2 P0006 T00110006
KFIG 062212Z AUTO 08005KT 6SM RA BR OVC013 01/01 A2981 RMK AO2 P0002 T00110006
KFIG 062204Z AUTO 09004KT 7SM RA OVC015 01/01 A2981 RMK AO2 PRESRR P0001 T00110006
KFIG 062154Z AUTO 10005KT 8SM -RA OVC013 01/01 A2979 RMK AO2 SLP105 P0008 T00110006
KFIG 062123Z AUTO 10008KT 4SM RA BR FEW009 BKN013 OVC019 01/00 A2978 RMK AO2 P0005 T00060000
KFIG 062116Z AUTO 10006KT 4SM RA BR FEW009 OVC015 01/00 A2979 RMK AO2 P0004 T00060000
KFIG 062054Z AUTO 11006KT 4SM RA BR OVC015 01/00 A2980 RMK AO2 SLP107 P0010 60018 T00060000 56024
KFIG 061954Z AUTO 12004KT 4SM RA BR OVC015 01/00 A2982 RMK AO2 SLP115 P0006 T00060000
KFIG 061910Z AUTO VRB05KT 6SM -RA BR BKN020 OVC055 01/00 A2983 RMK AO2 P0001 T00110000
KFIG 061854Z AUTO 11006KT 10SM -RA FEW020 OVC055 01/00 A2982 RMK AO2 SLP115 P0002 T00110000
KFIG 061754Z AUTO 11005KT 6SM -RA BR FEW024 SCT044 OVC070 01/M01 A2987 RMK AO2 RAB1658 SLP132 P0002 60002 T00111011 10022 21033 58036
KFIG 061654Z AUTO 11012G16KT 10SM BKN095 OVC110 02/M03 A2992 RMK AO2 SLP145 T00221028
KFIG 061554Z AUTO VRB05KT 10SM FEW120 01/M02 A2996 RMK AO2 SLP162 T00111017
KFIG 061454Z AUTO 05009KT 10SM CLR M01/M02 A2998 RMK AO2 SLP170 T10061017 58014
KFIG 061354Z AUTO 08004KT 10SM CLR M01/M02 A3001 RMK AO2 SLP178 T10111022
KFIG 061254Z AUTO 07007KT 10SM CLR M02/M03 A3003 RMK AO2 SLP183 T10171028
KFIG 061154Z AUTO 02007KT 10SM CLR M03/M03 A3003 RMK AO2 SLP184 70001 I6001 T10331033 11022 21050 58013
KFIG 061054Z AUTO 01006KT 10SM SCT001 M04/M05 A3005 RMK AO2 SLP192 T10391050
KFIG 061018Z AUTO 36007KT 8SM BKN002 M04/M04 A3005 RMK AO2 T10441044
KFIG 060954Z AUTO 01007KT 8SM FEW002 M04/M05 A3005 RMK AO2 SLP191 I1000 T10441050
KFIG 060854Z AUTO 36006KT 9SM CLR M04/M05 A3007 RMK AO2 SLP198 I1000 I3001 T10441050 58002
KFIG 060813Z AUTO 36003KT 8SM FEW003 M03/M04 A3007 RMK AO2 T10331039
KFIG 060806Z AUTO 00000KT 1 3/4SM BR FEW003 M03/M04 A3008 RMK AO2 T10331039
KFIG 060801Z AUTO 00000KT 1/2SM FZFG VV003 M03/M03 A3008 RMK AO2 T10331033
KFIG 060754Z AUTO 00000KT 1 1/4SM BR FEW003 M03/M03 A3008 RMK AO2 VIS 1/4V5 SLP199 I1000 T10281033
KFIG 060752Z AUTO 00000KT 2 1/2SM BR FEW003 M03/M03 A3008 RMK AO2 I1000
KFIG 060654Z AUTO 34003KT 8SM CLR M03/M03 A3007 RMK AO2 SLP198 I1001 T10281028
KFIG 060557Z AUTO 36005KT 3SM BR CLR M03/M03 A3008 RMK AO2 T10331033
KFIG 060554Z AUTO 01005KT 1 3/4SM BR CLR M03/M03 A3007 RMK AO2 VIS 3/4V5 SLP199 I1001 I6001 T10331033 10017 21033 58003
KFIG 060548Z AUTO 36005KT 1 3/4SM BR CLR M03/M03 A3008 RMK AO2 VIS 3/4V5 I1001
KFIG 060454Z AUTO 00000KT 10SM CLR M02/M02 A3010 RMK AO2 SLP207 I1000 T10171022 400441028
KFIG 060354Z AUTO 00000KT 10SM SCT030 M02/M02 A3010 RMK AO2 SLP207 T10171022
KFIG 060254Z AUTO 35004KT 10SM CLR M02/M02 A3008 RMK AO2 SLP201 T10171022 50003